sensor_id;sensor_type;location;lat;lon;timestamp;temperature;humidity
24902;DHT22;31328;51.402;0.016;2023-04-15T00:01:30;8.70;99.90
24902;DHT22;31328;51.402;0.016;2023-04-15T00:03:59;8.70;99.90
24902;DHT22;31328;51.402;0.016;2023-04-15T00:06:25;8.70;99.90
24902;DHT22;31328;51.402;0.016;2023-04-15T00:08:52;8.70;99.90
24902;DHT22;31328;51.402;0.016;2023-04-15T00:11:19;8.70;99.90
24902;DHT22;31328;51.402;0.016;2023-04-15T00:13:45;8.70;99.90
24902;DHT22;31328;51.402;0.016;2023-04-15T00:16:11;8.70;99.90
24902;DHT22;31328;51.402;0.016;2023-04-15T00:18:38;8.60;99.90
24902;DHT22;31328;51.402;0.016;2023-04-15T00:21:04;8.60;99.90
24902;DHT22;31328;51.402;0.016;2023-04-15T00:23:31;8.60;99.90
24902;DHT22;31328;51.402;0.016;2023-04-15T00:25:57;8.60;99.90
24902;DHT22;31328;51.402;0.016;2023-04-15T00:28:23;8.70;99.90
24902;DHT22;31328;51.402;0.016;2023-04-15T00:30:49;8.70;99.90
24902;DHT22;31328;51.402;0.016;2023-04-15T00:33:16;8.70;99.90
24902;DHT22;31328;51.402;0.016;2023-04-15T00:35:42;8.70;99.90
24902;DHT22;31328;51.402;0.016;2023-04-15T00:38:09;8.70;99.90
24902;DHT22;31328;51.402;0.016;2023-04-15T00:40:35;8.70;99.90
24902;DHT22;31328;51.402;0.016;2023-04-15T00:43:02;8.70;99.90
24902;DHT22;31328;51.402;0.016;2023-04-15T00:45:29;8.70;99.90
24902;DHT22;31328;51.402;0.016;2023-04-15T00:47:55;8.70;99.90
24902;DHT22;31328;51.402;0.016;2023-04-15T00:50:21;8.70;99.90
24902;DHT22;31328;51.402;0.016;2023-04-15T00:52:48;8.70;99.90
24902;DHT22;31328;51.402;0.016;2023-04-15T00:55:15;8.70;99.90
24902;DHT22;31328;51.402;0.016;2023-04-15T00:57:41;8.70;99.90
24902;DHT22;31328;51.402;0.016;2023-04-15T01:00:08;8.70;99.90
24902;DHT22;31328;51.402;0.016;2023-04-15T01:02:36;8.70;99.90
24902;DHT22;31328;51.402;0.016;2023-04-15T01:05:03;8.70;99.90
24902;DHT22;31328;51.402;0.016;2023-04-15T01:07:30;8.70;99.90
24902;DHT22;31328;51.402;0.016;2023-04-15T01:09:57;8.70;99.90
24902;DHT22;31328;51.402;0.016;2023-04-15T01:12:25;8.70;99.90
24902;DHT22;31328;51.402;0.016;2023-04-15T01:14:53;8.70;99.90
24902;DHT22;31328;51.402;0.016;2023-04-15T01:17:20;8.80;99.90
24902;DHT22;31328;51.402;0.016;2023-04-15T01:19:47;8.80;99.90
24902;DHT22;31328;51.402;0.016;2023-04-15T01:22:14;8.80;99.90
24902;DHT22;31328;51.402;0.016;2023-04-15T01:24:40;8.80;99.90
24902;DHT22;31328;51.402;0.016;2023-04-15T01:27:09;8.80;99.90
24902;DHT22;31328;51.402;0.016;2023-04-15T01:29:37;8.80;99.90
24902;DHT22;31328;51.402;0.016;2023-04-15T01:32:05;8.80;99.90
24902;DHT22;31328;51.402;0.016;2023-04-15T01:34:49;8.80;99.90
24902;DHT22;31328;51.402;0.016;2023-04-15T01:37:35;8.80;99.90
24902;DHT22;31328;51.402;0.016;2023-04-15T01:40:02;8.80;99.90
24902;DHT22;31328;51.402;0.016;2023-04-15T01:42:29;8.80;99.90
24902;DHT22;31328;51.402;0.016;2023-04-15T01:44:56;8.80;99.90
24902;DHT22;31328;51.402;0.016;2023-04-15T01:47:24;8.80;99.90
24902;DHT22;31328;51.402;0.016;2023-04-15T01:49:52;8.80;99.90
24902;DHT22;31328;51.402;0.016;2023-04-15T01:52:19;8.80;99.90
24902;DHT22;31328;51.402;0.016;2023-04-15T01:54:47;8.80;99.90
24902;DHT22;31328;51.402;0.016;2023-04-15T01:57:15;8.80;99.90
24902;DHT22;31328;51.402;0.016;2023-04-15T01:59:42;8.80;99.90
24902;DHT22;31328;51.402;0.016;2023-04-15T02:02:10;8.80;99.90
24902;DHT22;31328;51.402;0.016;2023-04-15T02:04:38;8.80;99.90
24902;DHT22;31328;51.402;0.016;2023-04-15T02:07:06;8.80;99.90
24902;DHT22;31328;51.402;0.016;2023-04-15T02:09:33;8.70;99.90
24902;DHT22;31328;51.402;0.016;2023-04-15T02:12:01;8.70;99.90
24902;DHT22;31328;51.402;0.016;2023-04-15T02:14:29;8.70;99.90
24902;DHT22;31328;51.402;0.016;2023-04-15T02:16:58;8.70;99.90
24902;DHT22;31328;51.402;0.016;2023-04-15T02:19:34;8.70;99.90
24902;DHT22;31328;51.402;0.016;2023-04-15T02:22:04;8.60;99.90
24902;DHT22;31328;51.402;0.016;2023-04-15T02:24:33;8.60;99.90
24902;DHT22;31328;51.402;0.016;2023-04-15T02:27:01;8.60;99.90
24902;DHT22;31328;51.402;0.016;2023-04-15T02:29:30;8.60;99.90
24902;DHT22;31328;51.402;0.016;2023-04-15T02:31:58;8.60;99.90
24902;DHT22;31328;51.402;0.016;2023-04-15T02:34:27;8.60;99.90
24902;DHT22;31328;51.402;0.016;2023-04-15T02:36:58;8.50;99.90
24902;DHT22;31328;51.402;0.016;2023-04-15T02:39:26;8.50;99.90
24902;DHT22;31328;51.402;0.016;2023-04-15T02:41:53;8.50;99.90
24902;DHT22;31328;51.402;0.016;2023-04-15T02:44:22;8.40;99.90
24902;DHT22;31328;51.402;0.016;2023-04-15T02:46:53;8.40;99.90
24902;DHT22;31328;51.402;0.016;2023-04-15T02:49:22;8.40;99.90
24902;DHT22;31328;51.402;0.016;2023-04-15T02:51:50;8.40;99.90
24902;DHT22;31328;51.402;0.016;2023-04-15T02:54:20;8.30;99.90
24902;DHT22;31328;51.402;0.016;2023-04-15T02:56:49;8.30;99.90
24902;DHT22;31328;51.402;0.016;2023-04-15T02:59:17;8.30;99.90
24902;DHT22;31328;51.402;0.016;2023-04-15T03:01:44;8.20;99.90
24902;DHT22;31328;51.402;0.016;2023-04-15T03:04:12;8.20;99.90
24902;DHT22;31328;51.402;0.016;2023-04-15T03:06:40;8.20;99.90
24902;DHT22;31328;51.402;0.016;2023-04-15T03:09:10;8.20;99.90
24902;DHT22;31328;51.402;0.016;2023-04-15T03:11:38;8.20;99.90
24902;DHT22;31328;51.402;0.016;2023-04-15T03:14:09;8.20;99.90
24902;DHT22;31328;51.402;0.016;2023-04-15T03:16:41;8.10;99.90
24902;DHT22;31328;51.402;0.016;2023-04-15T03:19:09;8.20;99.90
24902;DHT22;31328;51.402;0.016;2023-04-15T03:21:38;8.20;99.90
24902;DHT22;31328;51.402;0.016;2023-04-15T03:24:06;8.20;99.90
24902;DHT22;31328;51.402;0.016;2023-04-15T03:26:34;8.10;99.90
24902;DHT22;31328;51.402;0.016;2023-04-15T03:29:10;8.20;99.90
24902;DHT22;31328;51.402;0.016;2023-04-15T03:31:40;8.10;99.90
24902;DHT22;31328;51.402;0.016;2023-04-15T03:34:08;8.10;99.90
24902;DHT22;31328;51.402;0.016;2023-04-15T03:36:36;8.20;99.90
24902;DHT22;31328;51.402;0.016;2023-04-15T03:39:04;8.10;99.90
24902;DHT22;31328;51.402;0.016;2023-04-15T03:41:31;8.10;99.90
24902;DHT22;31328;51.402;0.016;2023-04-15T03:43:59;8.10;99.90
24902;DHT22;31328;51.402;0.016;2023-04-15T03:46:27;8.10;99.90
24902;DHT22;31328;51.402;0.016;2023-04-15T03:48:54;8.10;99.90
24902;DHT22;31328;51.402;0.016;2023-04-15T03:51:22;8.10;99.90
24902;DHT22;31328;51.402;0.016;2023-04-15T03:53:49;8.10;99.90
24902;DHT22;31328;51.402;0.016;2023-04-15T03:56:17;8.10;99.90
24902;DHT22;31328;51.402;0.016;2023-04-15T03:58:45;8.10;99.90
24902;DHT22;31328;51.402;0.016;2023-04-15T04:01:12;8.10;99.90
24902;DHT22;31328;51.402;0.016;2023-04-15T04:03:40;8.10;99.90
24902;DHT22;31328;51.402;0.016;2023-04-15T04:06:08;8.10;99.90
24902;DHT22;31328;51.402;0.016;2023-04-15T04:08:36;8.20;99.90
24902;DHT22;31328;51.402;0.016;2023-04-15T04:11:04;8.20;99.90
24902;DHT22;31328;51.402;0.016;2023-04-15T04:13:32;8.10;99.90
24902;DHT22;31328;51.402;0.016;2023-04-15T04:15:59;8.10;99.90
24902;DHT22;31328;51.402;0.016;2023-04-15T04:18:27;8.10;99.90
24902;DHT22;31328;51.402;0.016;2023-04-15T04:20:54;8.10;99.90
24902;DHT22;31328;51.402;0.016;2023-04-15T04:23:22;8.10;99.90
24902;DHT22;31328;51.402;0.016;2023-04-15T04:25:50;8.10;99.90
24902;DHT22;31328;51.402;0.016;2023-04-15T04:28:18;8.10;99.90
24902;DHT22;31328;51.402;0.016;2023-04-15T04:30:46;8.10;99.90
24902;DHT22;31328;51.402;0.016;2023-04-15T04:33:14;8.10;99.90
24902;DHT22;31328;51.402;0.016;2023-04-15T04:35:41;8.10;99.90
24902;DHT22;31328;51.402;0.016;2023-04-15T04:38:09;8.10;99.90
24902;DHT22;31328;51.402;0.016;2023-04-15T04:40:37;8.10;99.90
24902;DHT22;31328;51.402;0.016;2023-04-15T04:43:05;8.10;99.90
24902;DHT22;31328;51.402;0.016;2023-04-15T04:45:32;8.10;99.90
24902;DHT22;31328;51.402;0.016;2023-04-15T04:48:00;8.10;99.90
24902;DHT22;31328;51.402;0.016;2023-04-15T04:50:28;8.00;99.90
24902;DHT22;31328;51.402;0.016;2023-04-15T04:52:55;8.10;99.90
24902;DHT22;31328;51.402;0.016;2023-04-15T04:55:23;8.10;99.90
24902;DHT22;31328;51.402;0.016;2023-04-15T04:57:50;8.10;99.90
24902;DHT22;31328;51.402;0.016;2023-04-15T05:00:18;8.10;99.90
24902;DHT22;31328;51.402;0.016;2023-04-15T05:02:45;8.10;99.90
24902;DHT22;31328;51.402;0.016;2023-04-15T05:05:13;8.10;99.90
24902;DHT22;31328;51.402;0.016;2023-04-15T05:07:41;8.10;99.90
24902;DHT22;31328;51.402;0.016;2023-04-15T05:10:09;8.10;99.90
24902;DHT22;31328;51.402;0.016;2023-04-15T05:12:37;8.20;99.90
24902;DHT22;31328;51.402;0.016;2023-04-15T05:15:05;8.20;99.90
24902;DHT22;31328;51.402;0.016;2023-04-15T05:17:33;8.20;99.90
24902;DHT22;31328;51.402;0.016;2023-04-15T05:20:02;8.20;99.90
24902;DHT22;31328;51.402;0.016;2023-04-15T05:22:30;8.20;99.90
24902;DHT22;31328;51.402;0.016;2023-04-15T05:24:58;8.20;99.90
24902;DHT22;31328;51.402;0.016;2023-04-15T05:27:26;8.20;99.90
24902;DHT22;31328;51.402;0.016;2023-04-15T05:29:53;8.20;99.90
24902;DHT22;31328;51.402;0.016;2023-04-15T05:32:21;8.20;99.90
24902;DHT22;31328;51.402;0.016;2023-04-15T05:34:48;8.20;99.90
24902;DHT22;31328;51.402;0.016;2023-04-15T05:37:16;8.20;99.90
24902;DHT22;31328;51.402;0.016;2023-04-15T05:39:44;8.20;99.90
24902;DHT22;31328;51.402;0.016;2023-04-15T05:42:11;8.20;99.90
24902;DHT22;31328;51.402;0.016;2023-04-15T05:44:39;8.20;99.90
24902;DHT22;31328;51.402;0.016;2023-04-15T05:47:06;8.20;99.90
24902;DHT22;31328;51.402;0.016;2023-04-15T05:49:35;8.30;99.90
24902;DHT22;31328;51.402;0.016;2023-04-15T05:52:03;8.30;99.90
24902;DHT22;31328;51.402;0.016;2023-04-15T05:54:31;8.20;99.90
24902;DHT22;31328;51.402;0.016;2023-04-15T05:56:58;8.30;99.90
24902;DHT22;31328;51.402;0.016;2023-04-15T05:59:26;8.30;99.90
24902;DHT22;31328;51.402;0.016;2023-04-15T06:01:54;8.40;99.90
24902;DHT22;31328;51.402;0.016;2023-04-15T06:04:22;8.40;99.90
24902;DHT22;31328;51.402;0.016;2023-04-15T06:06:50;8.40;99.90
24902;DHT22;31328;51.402;0.016;2023-04-15T06:09:18;8.40;99.90
24902;DHT22;31328;51.402;0.016;2023-04-15T06:11:46;8.40;99.90
24902;DHT22;31328;51.402;0.016;2023-04-15T06:14:13;8.40;99.90
24902;DHT22;31328;51.402;0.016;2023-04-15T06:16:41;8.50;99.90
24902;DHT22;31328;51.402;0.016;2023-04-15T06:19:08;8.50;99.90
24902;DHT22;31328;51.402;0.016;2023-04-15T06:21:36;8.50;99.90
24902;DHT22;31328;51.402;0.016;2023-04-15T06:24:04;8.50;99.90
24902;DHT22;31328;51.402;0.016;2023-04-15T06:26:32;8.50;99.90
24902;DHT22;31328;51.402;0.016;2023-04-15T06:28:59;8.50;99.90
24902;DHT22;31328;51.402;0.016;2023-04-15T06:31:27;8.60;99.90
24902;DHT22;31328;51.402;0.016;2023-04-15T06:33:54;8.60;99.90
24902;DHT22;31328;51.402;0.016;2023-04-15T06:36:22;8.60;99.90
24902;DHT22;31328;51.402;0.016;2023-04-15T06:38:49;8.60;99.90
24902;DHT22;31328;51.402;0.016;2023-04-15T06:41:17;8.60;99.90
24902;DHT22;31328;51.402;0.016;2023-04-15T06:43:45;8.60;99.90
24902;DHT22;31328;51.402;0.016;2023-04-15T06:46:12;8.70;99.90
24902;DHT22;31328;51.402;0.016;2023-04-15T06:48:40;8.70;99.90
24902;DHT22;31328;51.402;0.016;2023-04-15T06:51:08;8.70;99.90
24902;DHT22;31328;51.402;0.016;2023-04-15T06:53:35;8.70;99.90
24902;DHT22;31328;51.402;0.016;2023-04-15T06:56:08;8.70;99.90
24902;DHT22;31328;51.402;0.016;2023-04-15T06:58:36;8.70;99.90
24902;DHT22;31328;51.402;0.016;2023-04-15T07:01:03;8.80;99.90
24902;DHT22;31328;51.402;0.016;2023-04-15T07:03:31;8.80;99.90
24902;DHT22;31328;51.402;0.016;2023-04-15T07:05:59;8.80;99.90
24902;DHT22;31328;51.402;0.016;2023-04-15T07:08:27;8.80;99.90
24902;DHT22;31328;51.402;0.016;2023-04-15T07:10:55;8.90;99.90
24902;DHT22;31328;51.402;0.016;2023-04-15T07:13:23;8.90;99.90
24902;DHT22;31328;51.402;0.016;2023-04-15T07:15:50;8.90;99.90
24902;DHT22;31328;51.402;0.016;2023-04-15T07:18:18;8.90;99.90
24902;DHT22;31328;51.402;0.016;2023-04-15T07:20:45;8.90;99.90
24902;DHT22;31328;51.402;0.016;2023-04-15T07:23:13;8.90;99.90
24902;DHT22;31328;51.402;0.016;2023-04-15T07:25:41;8.90;99.90
24902;DHT22;31328;51.402;0.016;2023-04-15T07:28:08;8.90;99.90
24902;DHT22;31328;51.402;0.016;2023-04-15T07:30:36;8.90;99.90
24902;DHT22;31328;51.402;0.016;2023-04-15T07:33:04;9.00;99.90
24902;DHT22;31328;51.402;0.016;2023-04-15T07:35:32;9.00;99.90
24902;DHT22;31328;51.402;0.016;2023-04-15T07:37:59;9.00;99.90
24902;DHT22;31328;51.402;0.016;2023-04-15T07:40:27;9.00;99.90
24902;DHT22;31328;51.402;0.016;2023-04-15T07:42:57;9.00;99.90
24902;DHT22;31328;51.402;0.016;2023-04-15T07:45:25;9.00;99.90
24902;DHT22;31328;51.402;0.016;2023-04-15T07:47:53;9.00;99.90
24902;DHT22;31328;51.402;0.016;2023-04-15T07:50:22;9.00;99.90
24902;DHT22;31328;51.402;0.016;2023-04-15T07:52:50;9.00;99.90
24902;DHT22;31328;51.402;0.016;2023-04-15T07:55:18;9.00;99.90
24902;DHT22;31328;51.402;0.016;2023-04-15T07:57:48;9.00;99.90
24902;DHT22;31328;51.402;0.016;2023-04-15T08:00:16;9.00;99.90
24902;DHT22;31328;51.402;0.016;2023-04-15T08:02:44;9.10;99.90
24902;DHT22;31328;51.402;0.016;2023-04-15T08:05:14;9.10;99.90
24902;DHT22;31328;51.402;0.016;2023-04-15T08:07:42;9.10;99.90
24902;DHT22;31328;51.402;0.016;2023-04-15T08:10:09;9.10;99.90
24902;DHT22;31328;51.402;0.016;2023-04-15T08:12:38;9.10;99.90
24902;DHT22;31328;51.402;0.016;2023-04-15T08:15:06;9.20;99.90
24902;DHT22;31328;51.402;0.016;2023-04-15T08:17:34;9.20;99.90
24902;DHT22;31328;51.402;0.016;2023-04-15T08:20:02;9.30;99.90
24902;DHT22;31328;51.402;0.016;2023-04-15T08:22:32;9.30;99.90
24902;DHT22;31328;51.402;0.016;2023-04-15T08:24:59;9.30;99.90
24902;DHT22;31328;51.402;0.016;2023-04-15T08:27:27;9.40;99.90
24902;DHT22;31328;51.402;0.016;2023-04-15T08:29:54;9.40;99.90
24902;DHT22;31328;51.402;0.016;2023-04-15T08:32:22;9.40;99.90
24902;DHT22;31328;51.402;0.016;2023-04-15T08:34:49;9.50;99.90
24902;DHT22;31328;51.402;0.016;2023-04-15T08:37:17;9.50;99.90
24902;DHT22;31328;51.402;0.016;2023-04-15T08:39:45;9.60;99.90
24902;DHT22;31328;51.402;0.016;2023-04-15T08:42:16;9.60;99.90
24902;DHT22;31328;51.402;0.016;2023-04-15T08:44:45;9.70;99.90
24902;DHT22;31328;51.402;0.016;2023-04-15T08:47:17;9.80;99.90
24902;DHT22;31328;51.402;0.016;2023-04-15T08:49:47;9.80;99.90
24902;DHT22;31328;51.402;0.016;2023-04-15T08:52:20;10.00;99.90
24902;DHT22;31328;51.402;0.016;2023-04-15T08:54:48;10.10;99.90
24902;DHT22;31328;51.402;0.016;2023-04-15T08:57:16;10.20;99.90
24902;DHT22;31328;51.402;0.016;2023-04-15T08:59:44;10.30;99.90
24902;DHT22;31328;51.402;0.016;2023-04-15T09:02:12;10.30;99.90
24902;DHT22;31328;51.402;0.016;2023-04-15T09:04:39;10.40;99.90
24902;DHT22;31328;51.402;0.016;2023-04-15T09:07:07;10.40;99.90
24902;DHT22;31328;51.402;0.016;2023-04-15T09:09:35;10.50;99.90
24902;DHT22;31328;51.402;0.016;2023-04-15T09:12:03;10.50;99.90
24902;DHT22;31328;51.402;0.016;2023-04-15T09:14:31;10.60;99.90
24902;DHT22;31328;51.402;0.016;2023-04-15T09:17:02;10.60;99.90
24902;DHT22;31328;51.402;0.016;2023-04-15T09:19:30;10.70;99.90
24902;DHT22;31328;51.402;0.016;2023-04-15T09:21:59;10.70;99.90
24902;DHT22;31328;51.402;0.016;2023-04-15T09:24:36;10.70;99.90
24902;DHT22;31328;51.402;0.016;2023-04-15T09:27:05;10.80;99.90
24902;DHT22;31328;51.402;0.016;2023-04-15T09:29:33;10.80;99.90
24902;DHT22;31328;51.402;0.016;2023-04-15T09:32:13;10.90;99.90
24902;DHT22;31328;51.402;0.016;2023-04-15T09:34:42;11.00;99.90
24902;DHT22;31328;51.402;0.016;2023-04-15T09:37:09;11.00;99.90
24902;DHT22;31328;51.402;0.016;2023-04-15T09:39:51;11.00;99.90
24902;DHT22;31328;51.402;0.016;2023-04-15T09:42:18;11.10;99.90
24902;DHT22;31328;51.402;0.016;2023-04-15T09:44:53;11.20;99.90
24902;DHT22;31328;51.402;0.016;2023-04-15T09:47:30;11.30;99.90
24902;DHT22;31328;51.402;0.016;2023-04-15T09:49:59;11.40;99.90
24902;DHT22;31328;51.402;0.016;2023-04-15T09:52:27;11.50;99.90
24902;DHT22;31328;51.402;0.016;2023-04-15T09:54:58;11.60;99.90
24902;DHT22;31328;51.402;0.016;2023-04-15T09:57:34;11.70;99.90
24902;DHT22;31328;51.402;0.016;2023-04-15T10:00:07;11.80;99.90
24902;DHT22;31328;51.402;0.016;2023-04-15T10:02:37;11.80;99.90
24902;DHT22;31328;51.402;0.016;2023-04-15T10:05:06;11.90;99.90
24902;DHT22;31328;51.402;0.016;2023-04-15T10:07:34;11.90;99.90
24902;DHT22;31328;51.402;0.016;2023-04-15T10:10:03;11.90;99.90
24902;DHT22;31328;51.402;0.016;2023-04-15T10:12:32;11.80;99.90
24902;DHT22;31328;51.402;0.016;2023-04-15T10:15:03;11.80;99.90
24902;DHT22;31328;51.402;0.016;2023-04-15T10:17:35;11.80;99.90
24902;DHT22;31328;51.402;0.016;2023-04-15T10:20:04;11.90;99.90
24902;DHT22;31328;51.402;0.016;2023-04-15T10:22:32;11.90;99.90
24902;DHT22;31328;51.402;0.016;2023-04-15T10:25:01;11.90;99.90
24902;DHT22;31328;51.402;0.016;2023-04-15T10:27:30;11.90;99.90
24902;DHT22;31328;51.402;0.016;2023-04-15T10:29:59;11.80;99.90
24902;DHT22;31328;51.402;0.016;2023-04-15T10:32:29;11.80;99.90
24902;DHT22;31328;51.402;0.016;2023-04-15T10:34:57;11.80;99.90
24902;DHT22;31328;51.402;0.016;2023-04-15T10:37:36;11.80;99.90
24902;DHT22;31328;51.402;0.016;2023-04-15T10:42:50;11.80;99.90
24902;DHT22;31328;51.402;0.016;2023-04-15T10:45:18;11.90;99.90
24902;DHT22;31328;51.402;0.016;2023-04-15T10:47:45;12.00;99.90
24902;DHT22;31328;51.402;0.016;2023-04-15T10:50:18;12.10;99.90
24902;DHT22;31328;51.402;0.016;2023-04-15T10:52:45;12.20;99.90
24902;DHT22;31328;51.402;0.016;2023-04-15T10:55:24;12.40;99.90
24902;DHT22;31328;51.402;0.016;2023-04-15T10:57:54;12.50;99.90
24902;DHT22;31328;51.402;0.016;2023-04-15T11:00:27;12.70;99.90
24902;DHT22;31328;51.402;0.016;2023-04-15T11:08:07;13.00;99.90
24902;DHT22;31328;51.402;0.016;2023-04-15T11:13:04;13.10;99.90
24902;DHT22;31328;51.402;0.016;2023-04-15T11:15:40;13.20;99.90
24902;DHT22;31328;51.402;0.016;2023-04-15T11:18:17;13.20;99.90
24902;DHT22;31328;51.402;0.016;2023-04-15T11:20:47;13.20;99.90
24902;DHT22;31328;51.402;0.016;2023-04-15T11:23:18;13.30;99.90
24902;DHT22;31328;51.402;0.016;2023-04-15T11:25:46;13.40;99.90
24902;DHT22;31328;51.402;0.016;2023-04-15T11:28:15;13.40;99.90
24902;DHT22;31328;51.402;0.016;2023-04-15T11:30:42;13.60;99.90
24902;DHT22;31328;51.402;0.016;2023-04-15T11:33:11;13.70;99.90
24902;DHT22;31328;51.402;0.016;2023-04-15T11:35:40;13.80;99.90
24902;DHT22;31328;51.402;0.016;2023-04-15T11:38:11;13.80;99.90
24902;DHT22;31328;51.402;0.016;2023-04-15T11:40:39;13.80;99.90
24902;DHT22;31328;51.402;0.016;2023-04-15T11:43:15;13.90;99.90
24902;DHT22;31328;51.402;0.016;2023-04-15T11:45:54;14.00;99.90
24902;DHT22;31328;51.402;0.016;2023-04-15T11:48:24;14.10;99.90
24902;DHT22;31328;51.402;0.016;2023-04-15T11:51:03;14.20;99.90
24902;DHT22;31328;51.402;0.016;2023-04-15T11:53:47;14.20;99.90
24902;DHT22;31328;51.402;0.016;2023-04-15T11:56:20;14.30;99.90
24902;DHT22;31328;51.402;0.016;2023-04-15T11:58:47;14.40;99.90
24902;DHT22;31328;51.402;0.016;2023-04-15T12:01:15;14.40;99.90
24902;DHT22;31328;51.402;0.016;2023-04-15T12:03:44;14.40;99.90
24902;DHT22;31328;51.402;0.016;2023-04-15T12:06:24;14.40;99.90
24902;DHT22;31328;51.402;0.016;2023-04-15T12:11:28;14.40;99.90
24902;DHT22;31328;51.402;0.016;2023-04-15T12:14:07;14.50;99.90
24902;DHT22;31328;51.402;0.016;2023-04-15T12:16:36;14.50;99.70
24902;DHT22;31328;51.402;0.016;2023-04-15T12:19:06;14.60;99.60
24902;DHT22;31328;51.402;0.016;2023-04-15T12:21:35;14.60;99.50
24902;DHT22;31328;51.402;0.016;2023-04-15T12:24:09;14.70;99.60
24902;DHT22;31328;51.402;0.016;2023-04-15T12:26:50;14.70;99.40
24902;DHT22;31328;51.402;0.016;2023-04-15T12:29:18;14.80;99.20
24902;DHT22;31328;51.402;0.016;2023-04-15T12:31:53;14.90;99.30
24902;DHT22;31328;51.402;0.016;2023-04-15T12:34:40;14.90;99.40
24902;DHT22;31328;51.402;0.016;2023-04-15T12:37:08;15.00;99.00
24902;DHT22;31328;51.402;0.016;2023-04-15T12:39:40;15.10;99.00
24902;DHT22;31328;51.402;0.016;2023-04-15T12:42:07;15.20;98.60
24902;DHT22;31328;51.402;0.016;2023-04-15T12:44:35;15.20;98.50
24902;DHT22;31328;51.402;0.016;2023-04-15T12:47:01;15.10;98.50
24902;DHT22;31328;51.402;0.016;2023-04-15T12:49:28;15.10;98.60
24902;DHT22;31328;51.402;0.016;2023-04-15T12:51:56;15.10;98.50
24902;DHT22;31328;51.402;0.016;2023-04-15T12:54:25;15.10;98.40
24902;DHT22;31328;51.402;0.016;2023-04-15T12:56:52;15.20;98.20
24902;DHT22;31328;51.402;0.016;2023-04-15T12:59:19;15.30;98.20
24902;DHT22;31328;51.402;0.016;2023-04-15T13:01:47;15.40;98.00
24902;DHT22;31328;51.402;0.016;2023-04-15T13:04:14;15.50;97.90
24902;DHT22;31328;51.402;0.016;2023-04-15T13:06:41;15.50;97.70
24902;DHT22;31328;51.402;0.016;2023-04-15T13:09:07;15.50;97.60
24902;DHT22;31328;51.402;0.016;2023-04-15T13:11:34;15.40;97.40
24902;DHT22;31328;51.402;0.016;2023-04-15T13:14:03;15.40;97.20
24902;DHT22;31328;51.402;0.016;2023-04-15T13:16:30;15.30;97.20
24902;DHT22;31328;51.402;0.016;2023-04-15T13:18:58;15.30;97.30
24902;DHT22;31328;51.402;0.016;2023-04-15T13:21:24;15.30;97.30
24902;DHT22;31328;51.402;0.016;2023-04-15T13:23:52;15.40;97.30
24902;DHT22;31328;51.402;0.016;2023-04-15T13:26:19;15.40;97.20
24902;DHT22;31328;51.402;0.016;2023-04-15T13:28:45;15.40;97.20
24902;DHT22;31328;51.402;0.016;2023-04-15T13:31:11;15.40;97.30
24902;DHT22;31328;51.402;0.016;2023-04-15T13:33:38;15.50;97.00
24902;DHT22;31328;51.402;0.016;2023-04-15T13:36:04;15.60;96.80
24902;DHT22;31328;51.402;0.016;2023-04-15T13:38:31;15.70;96.60
24902;DHT22;31328;51.402;0.016;2023-04-15T13:40:57;15.70;96.50
24902;DHT22;31328;51.402;0.016;2023-04-15T13:43:23;15.80;96.30
24902;DHT22;31328;51.402;0.016;2023-04-15T13:45:50;15.90;96.00
24902;DHT22;31328;51.402;0.016;2023-04-15T13:48:16;15.90;95.50
24902;DHT22;31328;51.402;0.016;2023-04-15T13:50:42;15.90;95.60
24902;DHT22;31328;51.402;0.016;2023-04-15T13:53:11;16.00;95.70
24902;DHT22;31328;51.402;0.016;2023-04-15T13:55:37;16.10;95.40
24902;DHT22;31328;51.402;0.016;2023-04-15T13:58:07;16.00;95.30
24902;DHT22;31328;51.402;0.016;2023-04-15T14:00:34;16.00;95.20
24902;DHT22;31328;51.402;0.016;2023-04-15T14:03:00;16.00;95.10
24902;DHT22;31328;51.402;0.016;2023-04-15T14:05:26;16.00;95.00
24902;DHT22;31328;51.402;0.016;2023-04-15T14:07:53;15.90;95.00
24902;DHT22;31328;51.402;0.016;2023-04-15T14:10:19;15.90;95.00
24902;DHT22;31328;51.402;0.016;2023-04-15T14:12:45;15.80;95.10
24902;DHT22;31328;51.402;0.016;2023-04-15T14:15:11;15.80;95.10
24902;DHT22;31328;51.402;0.016;2023-04-15T14:17:38;15.80;95.00
24902;DHT22;31328;51.402;0.016;2023-04-15T14:20:06;15.80;95.00
24902;DHT22;31328;51.402;0.016;2023-04-15T14:22:33;15.90;94.90
24902;DHT22;31328;51.402;0.016;2023-04-15T14:24:59;15.90;94.80
24902;DHT22;31328;51.402;0.016;2023-04-15T14:27:25;16.00;94.70
24902;DHT22;31328;51.402;0.016;2023-04-15T14:29:52;16.00;94.90
24902;DHT22;31328;51.402;0.016;2023-04-15T14:32:19;16.10;94.50
24902;DHT22;31328;51.402;0.016;2023-04-15T14:34:46;16.10;94.40
24902;DHT22;31328;51.402;0.016;2023-04-15T14:37:12;16.20;94.40
24902;DHT22;31328;51.402;0.016;2023-04-15T14:39:38;16.30;94.30
24902;DHT22;31328;51.402;0.016;2023-04-15T14:42:05;16.40;94.00
24902;DHT22;31328;51.402;0.016;2023-04-15T14:44:31;16.50;93.80
24902;DHT22;31328;51.402;0.016;2023-04-15T14:46:57;16.60;93.70
24902;DHT22;31328;51.402;0.016;2023-04-15T14:49:23;16.80;93.50
24902;DHT22;31328;51.402;0.016;2023-04-15T14:51:51;16.70;93.20
24902;DHT22;31328;51.402;0.016;2023-04-15T14:54:17;16.80;93.20
24902;DHT22;31328;51.402;0.016;2023-04-15T14:56:43;16.70;93.10
24902;DHT22;31328;51.402;0.016;2023-04-15T14:59:09;16.70;93.00
24902;DHT22;31328;51.402;0.016;2023-04-15T15:01:36;16.60;92.80
24902;DHT22;31328;51.402;0.016;2023-04-15T15:04:03;16.60;92.90
24902;DHT22;31328;51.402;0.016;2023-04-15T15:06:29;16.50;92.80
24902;DHT22;31328;51.402;0.016;2023-04-15T15:08:56;16.40;92.90
24902;DHT22;31328;51.402;0.016;2023-04-15T15:11:22;16.30;92.90
24902;DHT22;31328;51.402;0.016;2023-04-15T15:13:49;16.20;92.90
24902;DHT22;31328;51.402;0.016;2023-04-15T15:16:15;16.20;92.80
24902;DHT22;31328;51.402;0.016;2023-04-15T15:18:41;16.10;92.80
24902;DHT22;31328;51.402;0.016;2023-04-15T15:21:07;16.00;92.90
24902;DHT22;31328;51.402;0.016;2023-04-15T15:23:34;16.00;92.90
24902;DHT22;31328;51.402;0.016;2023-04-15T15:26:00;15.90;92.90
24902;DHT22;31328;51.402;0.016;2023-04-15T15:28:26;15.90;92.80
24902;DHT22;31328;51.402;0.016;2023-04-15T15:30:53;15.90;92.90
24902;DHT22;31328;51.402;0.016;2023-04-15T15:33:19;15.90;92.50
24902;DHT22;31328;51.402;0.016;2023-04-15T15:35:45;15.90;92.50
24902;DHT22;31328;51.402;0.016;2023-04-15T15:38:12;15.90;92.30
24902;DHT22;31328;51.402;0.016;2023-04-15T15:40:38;15.90;91.80
24902;DHT22;31328;51.402;0.016;2023-04-15T15:43:04;15.80;91.80
24902;DHT22;31328;51.402;0.016;2023-04-15T15:45:31;15.80;91.70
24902;DHT22;31328;51.402;0.016;2023-04-15T15:47:57;15.80;91.60
24902;DHT22;31328;51.402;0.016;2023-04-15T15:50:25;15.80;91.60
24902;DHT22;31328;51.402;0.016;2023-04-15T15:52:51;15.90;91.50
24902;DHT22;31328;51.402;0.016;2023-04-15T15:55:17;16.00;91.30
24902;DHT22;31328;51.402;0.016;2023-04-15T15:57:44;16.00;91.00
24902;DHT22;31328;51.402;0.016;2023-04-15T16:00:10;16.10;90.90